Time;durP1;ratioP1;P1;durP2;ratioP2;P2;SDS_P1;SDS_P2;PMS_P1;PMS_P2;Temp;Humidity;BMP_temperature;BMP_pressure;BME280_temperature;BME280_humidity;BME280_pressure;Samples;Min_cycle;Max_cycle;Signal;HPM_P1;HPM_P2
2021/01/05 00:01:39;;;;;;;;;;;;;;;0.15;95.10;101856.49;1809738;79;20179;-39
2021/01/05 00:04:07;;;;;;;;;;;;;;;0.15;94.97;101862.94;1809956;79;20183;-40
2021/01/05 00:06:35;;;;;;;;;;;;;;;0.13;94.96;101864.16;1809660;79;20297;-40
2021/01/05 00:09:04;;;;;;;;;;;;;;;0.13;94.99;101861.58;1812583;78;20182;-39
2021/01/05 00:11:34;;;;;;;;;;;;;;;0.13;95.01;101852.98;1812263;78;20498;-40
2021/01/05 00:14:02;;;;;;;;;;;;;;;0.12;95.02;101852.11;1810019;79;20207;-37
2021/01/05 00:16:30;;;;;;;;;;;;;;;0.12;94.96;101861.13;1809889;79;20443;-39
2021/01/05 00:18:57;;;;;;;;;;;;;;;0.11;94.96;101864.52;1809942;79;20159;-40
2021/01/05 00:21:25;;;;;;;;;;;;;;;0.11;94.92;101854.20;1809764;79;20135;-39
2021/01/05 00:23:54;;;;;;;;;;;;;;;0.10;94.85;101849.86;1809833;79;20531;-39
2021/01/05 00:26:21;;;;;;;;;;;;;;;0.09;94.71;101836.89;1809615;79;20154;-38
2021/01/05 00:28:49;;;;;;;;;;;;;;;0.09;94.57;101848.49;1809662;79;20269;-39
2021/01/05 00:31:17;;;;;;;;;;;;;;;0.08;94.46;101849.30;1809476;79;20237;-38
2021/01/05 00:33:44;;;;;;;;;;;;;;;0.06;94.38;101848.38;1809819;79;20250;-38
2021/01/05 00:36:12;;;;;;;;;;;;;;;0.05;94.32;101850.47;1809803;79;20465;-39
2021/01/05 00:38:40;;;;;;;;;;;;;;;0.03;94.16;101849.52;1810093;79;20162;-39
2021/01/05 00:41:08;;;;;;;;;;;;;;;-0.01;94.10;101844.23;1809521;79;20229;-39
2021/01/05 00:43:36;;;;;;;;;;;;;;;-0.01;94.05;101840.37;1809995;79;20233;-39
2021/01/05 00:46:04;;;;;;;;;;;;;;;-0.02;93.97;101847.63;1808861;78;20226;-39
2021/01/05 00:48:32;;;;;;;;;;;;;;;-0.02;94.00;101850.61;1809433;79;20499;-39
2021/01/05 00:51:00;;;;;;;;;;;;;;;-0.04;94.00;101842.80;1809549;79;20229;-38
2021/01/05 00:53:28;;;;;;;;;;;;;;;-0.04;94.05;101847.07;1809192;78;20190;-38
2021/01/05 00:55:56;;;;;;;;;;;;;;;-0.05;94.09;101844.02;1809276;79;20230;-38
2021/01/05 00:58:24;;;;;;;;;;;;;;;-0.07;94.06;101849.53;1809778;79;20174;-40
2021/01/05 01:00:55;;;;;;;;;;;;;;;-0.09;94.07;101854.61;1809585;79;20417;-38
2021/01/05 01:03:22;;;;;;;;;;;;;;;-0.09;94.07;101851.15;1809602;79;20166;-38
2021/01/05 01:05:51;;;;;;;;;;;;;;;-0.10;94.05;101849.38;1809630;79;20146;-37
2021/01/05 01:08:20;;;;;;;;;;;;;;;-0.11;94.04;101853.65;1809514;79;20273;-37
2021/01/05 01:10:50;;;;;;;;;;;;;;;-0.11;94.04;101854.05;1808826;79;20214;-39
2021/01/05 01:13:18;;;;;;;;;;;;;;;-0.12;94.06;101857.03;1809108;79;20193;-39
2021/01/05 01:15:46;;;;;;;;;;;;;;;-0.12;94.03;101847.13;1778369;79;20389;-38
2021/01/05 01:18:14;;;;;;;;;;;;;;;-0.12;93.97;101847.13;1809645;79;20178;-38
2021/01/05 01:20:42;;;;;;;;;;;;;;;-0.13;93.95;101846.69;1809452;79;20146;-38
2021/01/05 01:23:10;;;;;;;;;;;;;;;-0.14;93.95;101847.09;1809728;79;20479;-37
2021/01/05 01:25:39;;;;;;;;;;;;;;;-0.15;93.89;101857.31;1809551;79;20162;-38
2021/01/05 01:28:11;;;;;;;;;;;;;;;-0.15;93.81;101848.30;1809635;79;20387;-39
2021/01/05 01:30:39;;;;;;;;;;;;;;;-0.17;93.70;101830.59;1778063;79;20197;-39
2021/01/05 01:33:08;;;;;;;;;;;;;;;-0.17;93.58;101839.20;1815798;78;20172;-38
2021/01/05 01:35:37;;;;;;;;;;;;;;;-0.17;93.54;101838.31;1842226;78;20407;-38
2021/01/05 01:38:05;;;;;;;;;;;;;;;-0.19;93.53;101827.94;1842372;78;20167;-38
2021/01/05 01:40:40;;;;;;;;;;;;;;;-0.18;93.58;101833.97;1841972;78;20164;-37
2021/01/05 01:43:22;;;;;;;;;;;;;;;-0.18;93.62;101833.97;1841831;78;20235;-37
2021/01/05 01:45:52;;;;;;;;;;;;;;;-0.19;93.62;101837.36;1809801;78;20137;-37
2021/01/05 01:48:21;;;;;;;;;;;;;;;-0.21;93.64;101832.56;1839750;78;20180;-36
2021/01/05 01:50:54;;;;;;;;;;;;;;;-0.20;93.65;101835.62;1842360;78;20125;-37
2021/01/05 01:53:53;;;;;;;;;;;;;;;-0.22;93.63;101839.41;1842490;78;20461;-44
2021/01/05 01:56:28;;;;;;;;;;;;;;;-0.23;93.54;101838.05;1842459;78;20433;-38
2021/01/05 01:59:25;;;;;;;;;;;;;;;-0.24;93.19;101823.39;1840123;78;20120;-39
2021/01/05 02:01:58;;;;;;;;;;;;;;;-0.26;92.98;101827.62;1836478;78;20529;-37
2021/01/05 02:04:47;;;;;;;;;;;;;;;-0.28;92.86;101817.23;1841950;78;20525;-39
2021/01/05 02:07:45;;;;;;;;;;;;;;;-0.29;92.80;101812.01;1839962;78;20441;-38
2021/01/05 02:10:33;;;;;;;;;;;;;;;-0.31;92.64;101808.06;1809333;79;20163;-39
2021/01/05 02:13:38;;;;;;;;;;;;;;;-0.32;92.55;101805.01;1809627;79;20421;-38
2021/01/05 02:16:28;;;;;;;;;;;;;;;-0.32;92.43;101810.56;1809385;79;20143;-37
2021/01/05 02:19:07;;;;;;;;;;;;;;;-0.33;92.30;101795.55;1809476;79;20158;-37
2021/01/05 02:21:47;;;;;;;;;;;;;;;-0.34;92.26;101807.95;1785102;79;20424;-37
2021/01/05 02:27:04;;;;;;;;;;;;;;;-0.29;92.35;101801.70;1918264;74;20225;-38
2021/01/05 02:29:38;;;;;;;;;;;;;;;-0.32;92.37;101797.69;1874040;75;20125;-37
2021/01/05 02:32:44;;;;;;;;;;;;;;;-0.34;92.45;101787.73;1892369;75;20152;-36
2021/01/05 02:35:24;;;;;;;;;;;;;;;-0.33;92.51;101798.12;1880201;75;20146;-36
2021/01/05 02:38:37;;;;;;;;;;;;;;;-0.33;92.60;101798.52;1874439;75;20314;-38
2021/01/05 02:41:53;;;;;;;;;;;;;;;-0.34;92.69;101799.33;1903205;75;20163;-38
2021/01/05 02:45:08;;;;;;;;;;;;;;;-0.35;92.70;101793.30;1903358;75;20151;-38
2021/01/05 02:48:09;;;;;;;;;;;;;;;-0.36;92.64;101798.38;1823899;75;20124;-38
2021/01/05 02:51:26;;;;;;;;;;;;;;;-0.35;92.63;101793.70;1902871;75;20128;-37
2021/01/05 02:54:34;;;;;;;;;;;;;;;-0.35;92.53;101788.14;1903008;75;20132;-38
2021/01/05 02:57:43;;;;;;;;;;;;;;;-0.34;92.48;101794.18;1903032;75;20136;-37
2021/01/05 03:00:57;;;;;;;;;;;;;;;-0.34;92.51;101796.76;1903135;75;20263;-37
2021/01/05 03:03:42;;;;;;;;;;;;;;;-0.34;92.57;101787.73;1842509;75;20211;-37
2021/01/05 03:06:34;;;;;;;;;;;;;;;-0.35;92.49;101780.82;1902886;75;20159;-37
2021/01/05 03:09:35;;;;;;;;;;;;;;;-0.33;92.38;101789.51;1903270;75;20133;-37
2021/01/05 03:12:36;;;;;;;;;;;;;;;-0.34;92.37;101783.47;1832463;75;20227;-37
2021/01/05 03:15:37;;;;;;;;;;;;;;;-0.32;92.26;101775.78;1902828;75;20140;-37
2021/01/05 03:18:43;;;;;;;;;;;;;;;-0.31;92.25;101776.27;1903306;75;20145;-38
2021/01/05 03:21:33;;;;;;;;;;;;;;;-0.31;92.27;101780.13;1903157;75;20199;-37
2021/01/05 03:24:19;;;;;;;;;;;;;;;-0.32;92.28;101768.05;1903159;75;20290;-37
2021/01/05 03:27:05;;;;;;;;;;;;;;;-0.30;92.37;101767.73;1903126;75;20140;-38
2021/01/05 03:29:40;;;;;;;;;;;;;;;-0.30;92.36;101768.61;1828330;77;20252;-37
2021/01/05 03:32:26;;;;;;;;;;;;;;;-0.29;92.39;101773.36;1867919;77;20225;-37
2021/01/05 03:35:13;;;;;;;;;;;;;;;-0.27;92.39;101771.74;1868088;77;20134;-37
2021/01/05 03:38:00;;;;;;;;;;;;;;;-0.27;92.40;101773.03;1867544;77;20135;-37
2021/01/05 03:40:46;;;;;;;;;;;;;;;-0.26;92.35;101761.92;1867396;77;20141;-37
2021/01/05 03:43:33;;;;;;;;;;;;;;;-0.25;92.19;101779.11;1867242;77;20142;-38
2021/01/05 03:46:19;;;;;;;;;;;;;;;-0.25;92.15;101763.65;1867221;77;20158;-40
2021/01/05 03:48:49;;;;;;;;;;;;;;;-0.23;91.92;101768.47;1820937;77;20181;-39
2021/01/05 03:51:35;;;;;;;;;;;;;;;-0.23;91.68;101785.22;1867143;77;20154;-37
2021/01/05 03:54:22;;;;;;;;;;;;;;;-0.21;91.61;101779.34;1867471;77;20139;-37
2021/01/05 03:57:08;;;;;;;;;;;;;;;-0.21;91.50;101777.16;1867369;77;20249;-38
2021/01/05 03:59:54;;;;;;;;;;;;;;;-0.19;91.41;101781.95;1867448;77;20178;-38
2021/01/05 04:02:41;;;;;;;;;;;;;;;-0.20;91.38;101775.95;1867285;77;20123;-38
2021/01/05 04:05:11;;;;;;;;;;;;;;;-0.19;91.46;101769.07;1866712;77;20160;-39
2021/01/05 04:07:39;;;;;;;;;;;;;;;-0.20;91.52;101764.76;1867453;77;20172;-38
2021/01/05 04:10:09;;;;;;;;;;;;;;;-0.21;91.58;101766.45;1867302;77;20128;-39
2021/01/05 04:12:37;;;;;;;;;;;;;;;-0.22;91.59;101766.38;1867323;77;20219;-38
2021/01/05 04:15:11;;;;;;;;;;;;;;;-0.22;91.60;101765.97;1871906;75;20122;-38
2021/01/05 04:17:38;;;;;;;;;;;;;;;-0.21;91.63;101752.69;1867345;77;20182;-39
2021/01/05 04:20:07;;;;;;;;;;;;;;;-0.22;91.62;101758.64;1866984;77;20146;-38
2021/01/05 04:22:35;;;;;;;;;;;;;;;-0.22;91.69;101767.66;1867225;77;20134;-38
2021/01/05 04:25:05;;;;;;;;;;;;;;;-0.21;91.72;101762.98;1867216;77;20131;-38
2021/01/05 04:27:32;;;;;;;;;;;;;;;-0.22;91.71;101761.22;1867011;77;20227;-37
2021/01/05 04:30:00;;;;;;;;;;;;;;;-0.22;91.70;101762.51;1867333;77;20192;-39
2021/01/05 04:32:28;;;;;;;;;;;;;;;-0.20;91.64;101760.89;1867459;76;20164;-38
2021/01/05 04:34:56;;;;;;;;;;;;;;;-0.21;91.54;101755.27;1867303;77;20142;-38
2021/01/05 04:37:24;;;;;;;;;;;;;;;-0.19;91.34;101745.87;1867461;77;20182;-38
2021/01/05 04:39:51;;;;;;;;;;;;;;;-0.18;91.20;101760.53;1829650;78;20224;-39
2021/01/05 04:42:26;;;;;;;;;;;;;;;-0.19;91.11;101755.78;1829755;78;20247;-39
2021/01/05 04:45:05;;;;;;;;;;;;;;;-0.19;91.03;101757.06;1794140;79;20167;-39
2021/01/05 04:47:37;;;;;;;;;;;;;;;-0.18;90.98;101767.86;1796730;80;20183;-39
2021/01/05 04:50:10;;;;;;;;;;;;;;;-0.17;90.95;101762.30;1822891;78;20156;-38
2021/01/05 04:52:41;;;;;;;;;;;;;;;-0.18;90.95;101751.11;1824377;78;20172;-38
2021/01/05 04:55:15;;;;;;;;;;;;;;;-0.20;90.94;101748.89;1804704;77;20202;-40
2021/01/05 04:57:43;;;;;;;;;;;;;;;-0.20;90.96;101752.76;1829155;78;20469;-38
2021/01/05 05:00:15;;;;;;;;;;;;;;;-0.20;90.98;101752.76;1841316;77;20223;-38
2021/01/05 05:02:55;;;;;;;;;;;;;;;-0.21;91.09;101753.56;1833869;77;20230;-37
2021/01/05 05:05:43;;;;;;;;;;;;;;;-0.20;91.04;101747.61;1836200;77;20190;-39
2021/01/05 05:08:36;;;;;;;;;;;;;;;-0.19;90.90;101754.49;1799519;78;20229;-39
2021/01/05 05:11:16;;;;;;;;;;;;;;;-0.19;90.85;101748.05;1807397;78;20205;-38
2021/01/05 05:13:53;;;;;;;;;;;;;;;-0.18;90.87;101753.68;1800575;78;20212;-38
2021/01/05 05:16:30;;;;;;;;;;;;;;;-0.19;90.90;101744.59;1824797;77;20144;-37
2021/01/05 05:19:35;;;;;;;;;;;;;;;-0.19;90.88;101739.03;1829157;78;20264;-39
2021/01/05 05:22:12;;;;;;;;;;;;;;;-0.18;90.85;101736.05;1835407;77;20181;-38
2021/01/05 05:25:07;;;;;;;;;;;;;;;-0.18;90.82;101742.09;1797046;80;20266;-40
2021/01/05 05:27:44;;;;;;;;;;;;;;;-0.17;90.79;101737.81;1827458;77;20196;-39
2021/01/05 05:30:13;;;;;;;;;;;;;;;-0.19;90.77;101738.15;1834801;77;20271;-38
2021/01/05 05:32:48;;;;;;;;;;;;;;;-0.20;90.73;101750.59;1832218;77;20160;-38
2021/01/05 05:35:44;;;;;;;;;;;;;;;-0.20;90.69;101732.55;1858786;77;20486;-39
2021/01/05 05:38:33;;;;;;;;;;;;;;;-0.21;90.65;101732.95;1840813;77;20173;-39
2021/01/05 05:41:31;;;;;;;;;;;;;;;-0.20;90.69;101745.03;1829605;77;20191;-40
2021/01/05 05:44:11;;;;;;;;;;;;;;;-0.19;90.66;101745.47;1815222;77;20275;-38
2021/01/05 05:46:48;;;;;;;;;;;;;;;-0.19;90.53;101743.30;1765532;78;20160;-40
2021/01/05 05:49:37;;;;;;;;;;;;;;;-0.19;90.51;101734.28;1829662;77;20299;-38
2021/01/05 05:52:09;;;;;;;;;;;;;;;-0.20;90.53;101742.45;1823510;77;20140;-38
2021/01/05 05:54:37;;;;;;;;;;;;;;;-0.21;90.55;101748.81;1836519;77;20477;-38
2021/01/05 05:57:25;;;;;;;;;;;;;;;-0.22;90.58;101744.07;1832457;77;20208;-40
2021/01/05 06:00:02;;;;;;;;;;;;;;;-0.22;90.55;101741.49;1829216;77;20433;-40
2021/01/05 06:02:54;;;;;;;;;;;;;;;-0.21;90.54;101744.55;1787148;78;20470;-39
2021/01/05 06:05:33;;;;;;;;;;;;;;;-0.20;90.53;101744.14;1777737;78;20229;-40
2021/01/05 06:08:07;;;;;;;;;;;;;;;-0.19;90.53;101744.19;1796862;78;20390;-40
2021/01/05 06:10:36;;;;;;;;;;;;;;;-0.17;90.56;101746.84;1834156;78;20225;-40
2021/01/05 06:13:05;;;;;;;;;;;;;;;-0.18;90.58;101738.22;1796265;78;20209;-40
2021/01/05 06:15:34;;;;;;;;;;;;;;;-0.17;90.56;101736.53;1781400;78;20171;-40
2021/01/05 06:18:03;;;;;;;;;;;;;;;-0.16;90.55;101734.02;1818639;78;20198;-38
2021/01/05 06:20:31;;;;;;;;;;;;;;;-0.14;90.53;101726.37;1810054;78;20253;-39
2021/01/05 06:22:58;;;;;;;;;;;;;;;-0.12;90.46;101726.00;1811999;78;20182;-40
2021/01/05 06:26:51;;;;;;;;;;;;;;;-0.05;90.41;101719.00;1892755;74;20418;-39
2021/01/05 06:29:19;;;;;;;;;;;;;;;-0.10;90.27;101720.11;1869313;75;20195;-42
2021/01/05 06:31:46;;;;;;;;;;;;;;;-0.11;90.19;101722.20;1867654;76;20287;-39
2021/01/05 06:34:14;;;;;;;;;;;;;;;-0.12;90.18;101714.00;1873411;75;20205;-40
2021/01/05 06:36:43;;;;;;;;;;;;;;;-0.13;90.08;101719.11;1871637;75;20210;-39
2021/01/05 06:39:12;;;;;;;;;;;;;;;-0.12;90.00;101719.16;1893140;75;20201;-41
2021/01/05 06:41:39;;;;;;;;;;;;;;;-0.11;89.94;101729.05;1868521;75;20337;-39
2021/01/05 06:44:07;;;;;;;;;;;;;;;-0.11;89.91;101727.77;1867264;77;20172;-40
2021/01/05 06:46:35;;;;;;;;;;;;;;;-0.11;89.86;101729.05;1867709;75;20170;-41
2021/01/05 06:49:02;;;;;;;;;;;;;;;-0.11;89.82;101732.52;1869710;75;20144;-41
2021/01/05 06:51:36;;;;;;;;;;;;;;;-0.11;89.81;101740.25;1867722;75;20209;-44
2021/01/05 06:54:14;;;;;;;;;;;;;;;-0.09;89.75;101735.17;1875220;75;20557;-39
2021/01/05 06:56:53;;;;;;;;;;;;;;;-0.06;89.68;101728.84;1845101;75;20179;-39
2021/01/05 06:59:22;;;;;;;;;;;;;;;-0.04;89.63;101728.50;1880591;75;20140;-41
2021/01/05 07:01:58;;;;;;;;;;;;;;;-0.03;89.45;101719.55;1874858;75;20181;-41
2021/01/05 07:04:26;;;;;;;;;;;;;;;-0.02;89.29;101724.31;1872714;75;20260;-42
2021/01/05 07:06:54;;;;;;;;;;;;;;;0.01;89.14;101724.41;1873445;75;20168;-39
2021/01/05 07:09:23;;;;;;;;;;;;;;;0.04;89.01;101727.14;1873581;75;20175;-42
2021/01/05 07:11:50;;;;;;;;;;;;;;;0.07;88.72;101728.54;1863296;76;20194;-40
2021/01/05 07:14:21;;;;;;;;;;;;;;;0.09;88.47;101714.03;1871855;75;20194;-41
2021/01/05 07:16:49;;;;;;;;;;;;;;;0.09;88.31;101725.63;1881790;75;20361;-40
2021/01/05 07:19:16;;;;;;;;;;;;;;;0.10;88.26;101727.80;1866832;75;20170;-41
2021/01/05 07:21:44;;;;;;;;;;;;;;;0.11;88.12;101724.41;1869660;75;20178;-40
2021/01/05 07:24:11;;;;;;;;;;;;;;;0.12;88.06;101730.05;1878240;75;20445;-41
2021/01/05 07:26:47;;;;;;;;;;;;;;;0.15;87.96;101725.00;1869279;75;20296;-41
2021/01/05 07:29:17;;;;;;;;;;;;;;;0.16;87.72;101719.03;1871831;75;20296;-40
2021/01/05 07:31:46;;;;;;;;;;;;;;;0.18;87.57;101717.00;1869187;75;20272;-40
2021/01/05 07:34:13;;;;;;;;;;;;;;;0.21;87.51;101718.40;1874053;75;20439;-41
2021/01/05 07:36:48;;;;;;;;;;;;;;;0.24;87.20;101726.68;1875178;75;20481;-40
2021/01/05 07:39:27;;;;;;;;;;;;;;;0.23;87.06;101724.51;1879306;75;20283;-41
2021/01/05 07:42:16;;;;;;;;;;;;;;;0.23;86.88;101727.50;1876001;75;20376;-41
2021/01/05 07:44:45;;;;;;;;;;;;;;;0.21;86.83;101725.25;1877091;75;20276;-43
2021/01/05 07:47:14;;;;;;;;;;;;;;;0.23;86.88;101712.02;1875824;75;20184;-40
2021/01/05 07:49:41;;;;;;;;;;;;;;;0.24;86.80;101721.12;1878060;75;20445;-43
2021/01/05 07:52:21;;;;;;;;;;;;;;;0.23;86.63;101717.18;1838732;77;20218;-42
2021/01/05 07:54:50;;;;;;;;;;;;;;;0.21;86.63;101718.40;1847216;77;20277;-42
2021/01/05 07:57:17;;;;;;;;;;;;;;;0.22;86.70;101718.88;1831360;77;20408;-39
2021/01/05 07:59:45;;;;;;;;;;;;;;;0.25;86.59;101712.98;1829437;77;20226;-40
2021/01/05 08:02:13;;;;;;;;;;;;;;;0.24;86.51;101707.34;1833264;77;20176;-44
2021/01/05 08:04:41;;;;;;;;;;;;;;;0.26;86.41;101701.84;1829934;77;20180;-40
2021/01/05 08:07:10;;;;;;;;;;;;;;;0.24;86.27;101704.36;1831821;77;20306;-41
2021/01/05 08:09:38;;;;;;;;;;;;;;;0.27;86.37;101696.73;1828615;77;20193;-42
2021/01/05 08:12:14;;;;;;;;;;;;;;;0.34;86.47;101692.70;1832596;77;20473;-42
2021/01/05 08:14:42;;;;;;;;;;;;;;;0.37;86.34;101693.72;1832589;77;20196;-43
2021/01/05 08:17:11;;;;;;;;;;;;;;;0.39;86.34;101679.61;1828810;77;20157;-42
2021/01/05 08:19:42;;;;;;;;;;;;;;;0.42;86.25;101690.44;1832171;77;20271;-43
2021/01/05 08:22:13;;;;;;;;;;;;;;;0.47;86.34;101683.75;1806352;78;20300;-40
2021/01/05 08:24:44;;;;;;;;;;;;;;;0.51;86.28;101684.36;1761581;78;20189;-41
2021/01/05 08:27:14;;;;;;;;;;;;;;;0.55;86.06;101684.53;1752068;79;20152;-42
2021/01/05 08:29:42;;;;;;;;;;;;;;;0.54;85.60;101687.05;1822910;77;20231;-41
2021/01/05 08:32:11;;;;;;;;;;;;;;;0.50;85.36;101684.77;1807711;78;20257;-41
2021/01/05 08:34:41;;;;;;;;;;;;;;;0.47;85.28;101683.34;1811550;78;20300;-41
2021/01/05 08:37:10;;;;;;;;;;;;;;;0.45;85.27;101678.97;1792188;79;20242;-42
2021/01/05 08:39:37;;;;;;;;;;;;;;;0.43;85.36;101667.28;1822339;77;20303;-43
2021/01/05 08:42:06;;;;;;;;;;;;;;;0.44;85.36;101674.21;1814463;78;20200;-42
2021/01/05 08:44:35;;;;;;;;;;;;;;;0.43;85.35;101672.45;1818058;78;20247;-43
2021/01/05 08:47:04;;;;;;;;;;;;;;;0.46;85.41;101665.25;1813641;78;20220;-42
2021/01/05 08:49:33;;;;;;;;;;;;;;;0.48;85.46;101659.72;1797963;78;20300;-41
2021/01/05 08:52:04;;;;;;;;;;;;;;;0.47;85.29;101656.26;1818769;77;20637;-43
2021/01/05 08:54:31;;;;;;;;;;;;;;;0.49;85.37;101655.92;1832521;77;20198;-43
2021/01/05 08:57:00;;;;;;;;;;;;;;;0.56;85.41;101657.04;1835549;77;20229;-43
2021/01/05 08:59:29;;;;;;;;;;;;;;;0.63;85.30;101651.30;1789371;79;20473;-43
2021/01/05 09:01:57;;;;;;;;;;;;;;;0.68;85.08;101655.81;1794419;79;20468;-50
2021/01/05 09:04:25;;;;;;;;;;;;;;;0.69;84.71;101648.55;1784626;77;20278;-43
2021/01/05 09:06:55;;;;;;;;;;;;;;;0.72;84.68;101643.48;1817015;78;20204;-41
2021/01/05 09:09:24;;;;;;;;;;;;;;;0.74;84.37;101637.09;1822976;77;20232;-42
2021/01/05 09:11:56;;;;;;;;;;;;;;;0.73;84.21;101636.62;1820859;77;20198;-42
2021/01/05 09:14:24;;;;;;;;;;;;;;;0.75;84.16;101635.87;1815986;78;20208;-41
2021/01/05 09:16:59;;;;;;;;;;;;;;;0.77;84.06;101634.64;1837317;77;20338;-44
2021/01/05 09:19:28;;;;;;;;;;;;;;;0.80;83.94;101630.87;1829295;77;20175;-42
2021/01/05 09:21:55;;;;;;;;;;;;;;;0.79;83.69;101628.70;1831329;77;20194;-41
2021/01/05 09:24:23;;;;;;;;;;;;;;;0.83;83.74;101623.26;1812265;78;20213;-42
2021/01/05 09:26:53;;;;;;;;;;;;;;;0.91;83.80;101624.43;1818715;78;20323;-42
2021/01/05 09:29:22;;;;;;;;;;;;;;;0.94;83.06;101623.23;1820996;77;20133;-41
2021/01/05 09:31:51;;;;;;;;;;;;;;;0.86;82.92;101623.36;1829056;77;20175;-42
2021/01/05 09:34:20;;;;;;;;;;;;;;;0.83;82.96;101612.94;1830557;77;20243;-43
2021/01/05 09:36:51;;;;;;;;;;;;;;;0.77;83.07;101610.13;1829110;77;20192;-41
2021/01/05 09:39:22;;;;;;;;;;;;;;;0.73;83.19;101610.81;1831787;77;20204;-41
2021/01/05 09:42:01;;;;;;;;;;;;;;;0.70;83.31;101611.59;1830190;77;20213;-41
2021/01/05 09:44:29;;;;;;;;;;;;;;;0.71;83.56;101602.16;1836669;77;20273;-53
2021/01/05 09:46:59;;;;;;;;;;;;;;;0.72;83.57;101593.59;1827686;77;20188;-42
2021/01/05 09:49:27;;;;;;;;;;;;;;;0.72;83.66;101598.77;1832725;77;20149;-42
2021/01/05 09:51:59;;;;;;;;;;;;;;;0.75;83.80;101589.83;1816060;78;20172;-42
2021/01/05 09:54:28;;;;;;;;;;;;;;;0.80;83.93;101589.58;1828445;77;20246;-42
2021/01/05 09:56:56;;;;;;;;;;;;;;;0.89;83.81;101583.47;1829904;77;20316;-42
2021/01/05 09:59:31;;;;;;;;;;;;;;;0.93;83.52;101576.30;1823029;77;20228;-43
2021/01/05 10:02:06;;;;;;;;;;;;;;;0.99;83.19;101574.34;1831620;77;20249;-42
2021/01/05 10:04:33;;;;;;;;;;;;;;;1.05;82.94;101580.60;1832042;77;20180;-41
2021/01/05 10:07:01;;;;;;;;;;;;;;;1.13;82.92;101570.14;1814358;78;20390;-41
2021/01/05 10:09:29;;;;;;;;;;;;;;;1.29;82.86;101565.11;1823638;78;20188;-43
2021/01/05 10:11:57;;;;;;;;;;;;;;;1.46;82.44;101566.55;1808669;78;20188;-41
2021/01/05 10:14:25;;;;;;;;;;;;;;;1.56;81.92;101560.89;1813373;78;20200;-42
2021/01/05 10:16:56;;;;;;;;;;;;;;;1.68;81.69;101562.99;1818670;78;20299;-42
2021/01/05 10:19:24;;;;;;;;;;;;;;;1.76;81.21;101560.66;1821748;77;20179;-42
2021/01/05 10:21:52;;;;;;;;;;;;;;;1.77;80.80;101551.64;1820672;78;20214;-45
2021/01/05 10:26:54;;;;;;;;;;;;;;;1.88;80.18;101543.84;1895956;74;20144;-42
2021/01/05 10:29:28;;;;;;;;;;;;;;;1.93;79.57;101537.52;1859331;75;20233;-43
2021/01/05 10:31:54;;;;;;;;;;;;;;;1.91;79.15;101545.63;1837336;75;20297;-42
2021/01/05 10:34:23;;;;;;;;;;;;;;;1.88;79.07;101536.50;1868678;75;20495;-42
2021/01/05 10:36:55;;;;;;;;;;;;;;;1.80;78.79;101531.08;1852720;75;20144;-42
2021/01/05 10:39:23;;;;;;;;;;;;;;;1.68;78.67;101535.86;1868261;75;20197;-42
2021/01/05 10:41:50;;;;;;;;;;;;;;;1.50;78.42;101528.38;1869430;75;20201;-41
2021/01/05 10:44:20;;;;;;;;;;;;;;;1.38;78.76;101525.81;1869931;75;20178;-42
2021/01/05 10:46:52;;;;;;;;;;;;;;;1.32;79.16;101526.86;1842572;75;20177;-40
2021/01/05 10:49:20;;;;;;;;;;;;;;;1.31;79.52;101519.56;1854753;75;20202;-44
2021/01/05 10:51:48;;;;;;;;;;;;;;;1.27;79.61;101526.72;1872113;75;20183;-43
2021/01/05 10:54:19;;;;;;;;;;;;;;;1.22;79.89;101533.44;1869928;75;20210;-43
2021/01/05 10:57:01;;;;;;;;;;;;;;;1.14;79.81;101528.00;1848839;75;20195;-42
2021/01/05 10:59:30;;;;;;;;;;;;;;;1.05;80.00;101522.51;1838600;77;20205;-42
2021/01/05 11:02:00;;;;;;;;;;;;;;;1.00;80.41;101521.48;1837384;77;21122;-44
2021/01/05 11:04:29;;;;;;;;;;;;;;;0.95;80.58;101513.99;1823745;77;20202;-43
2021/01/05 11:07:00;;;;;;;;;;;;;;;0.94;80.70;101526.42;1807105;78;20139;-43
2021/01/05 11:09:28;;;;;;;;;;;;;;;0.91;80.90;101526.75;1805488;78;20215;-44
2021/01/05 11:12:07;;;;;;;;;;;;;;;0.90;81.25;101528.45;1831056;77;20353;-43
2021/01/05 11:14:47;;;;;;;;;;;;;;;0.91;81.64;101527.63;1820789;78;20631;-42
2021/01/05 11:17:16;;;;;;;;;;;;;;;0.92;81.96;101520.32;1784855;78;20175;-43
2021/01/05 11:19:45;;;;;;;;;;;;;;;0.92;82.18;101515.60;1814132;78;20338;-42
2021/01/05 11:22:16;;;;;;;;;;;;;;;0.91;82.31;101506.98;1806128;78;20279;-43
2021/01/05 11:24:44;;;;;;;;;;;;;;;0.89;82.40;101509.02;1807131;78;20182;-41
2021/01/05 11:27:14;;;;;;;;;;;;;;;0.85;82.34;101507.17;1812654;78;20146;-42
2021/01/05 11:29:45;;;;;;;;;;;;;;;0.82;82.42;101507.05;1811330;78;20184;-43
2021/01/05 11:32:15;;;;;;;;;;;;;;;0.80;82.52;101508.27;1809967;78;20187;-43
2021/01/05 11:34:43;;;;;;;;;;;;;;;0.80;82.63;101505.70;1809815;78;20185;-45
2021/01/05 11:37:13;;;;;;;;;;;;;;;0.77;82.62;101500.03;1827009;77;20310;-42
2021/01/05 11:39:46;;;;;;;;;;;;;;;0.74;82.71;101502.48;1827941;77;20275;-41
2021/01/05 11:42:15;;;;;;;;;;;;;;;0.73;82.93;101505.89;1828069;77;20189;-43
2021/01/05 11:44:45;;;;;;;;;;;;;;;0.74;83.11;101515.39;1829047;77;20194;-44
2021/01/05 11:47:15;;;;;;;;;;;;;;;0.77;83.20;101505.20;1830737;77;20177;-45
2021/01/05 11:49:46;;;;;;;;;;;;;;;0.80;83.25;101505.70;1830831;77;20243;-44
2021/01/05 11:52:14;;;;;;;;;;;;;;;0.81;83.22;101511.33;1822699;77;20406;-43
2021/01/05 11:54:42;;;;;;;;;;;;;;;0.78;82.98;101511.23;1819966;77;20140;-44
2021/01/05 11:57:12;;;;;;;;;;;;;;;0.74;82.89;101504.19;1796917;77;20212;-43
2021/01/05 11:59:42;;;;;;;;;;;;;;;0.70;82.80;101516.53;1816601;78;20649;-43
2021/01/05 12:02:11;;;;;;;;;;;;;;;0.68;82.90;101512.59;1747522;79;20266;-42
2021/01/05 12:04:40;;;;;;;;;;;;;;;0.70;83.06;101513.53;1811534;78;20220;-43
2021/01/05 12:07:10;;;;;;;;;;;;;;;0.73;83.21;101512.34;1831544;77;20182;-42
2021/01/05 12:09:39;;;;;;;;;;;;;;;0.74;83.33;101506.36;1832454;77;20199;-42
2021/01/05 12:12:11;;;;;;;;;;;;;;;0.77;83.37;101503.02;1830429;77;20182;-42
2021/01/05 12:14:40;;;;;;;;;;;;;;;0.76;83.29;101512.88;1781474;77;20418;-43
2021/01/05 12:17:13;;;;;;;;;;;;;;;0.73;83.33;101509.76;1787124;77;20232;-44
2021/01/05 12:19:47;;;;;;;;;;;;;;;0.75;83.39;101517.56;1783504;78;20215;-41
2021/01/05 12:22:18;;;;;;;;;;;;;;;0.74;83.50;101501.20;1789306;77;20188;-43
2021/01/05 12:24:45;;;;;;;;;;;;;;;0.75;83.49;101507.23;1799675;78;20266;-42
2021/01/05 12:27:16;;;;;;;;;;;;;;;0.75;83.60;101521.03;1823122;78;20208;-44
2021/01/05 12:29:43;;;;;;;;;;;;;;;0.77;83.63;101503.02;1814775;78;20485;-44
2021/01/05 12:32:13;;;;;;;;;;;;;;;0.78;83.52;101508.66;1818936;77;20203;-43
2021/01/05 12:34:47;;;;;;;;;;;;;;;0.75;83.46;101522.31;1818883;78;20478;-42
2021/01/05 12:37:22;;;;;;;;;;;;;;;0.75;83.55;101520.14;1802635;77;20230;-47
2021/01/05 12:39:57;;;;;;;;;;;;;;;0.73;83.42;101521.78;1744671;79;20214;-41
2021/01/05 12:42:29;;;;;;;;;;;;;;;0.72;83.49;101514.45;1809602;78;20303;-43
2021/01/05 12:44:57;;;;;;;;;;;;;;;0.72;83.55;101516.18;1795024;79;20219;-43
2021/01/05 12:47:25;;;;;;;;;;;;;;;0.71;83.55;101512.72;1797010;79;20233;-43
2021/01/05 12:49:53;;;;;;;;;;;;;;;0.72;83.58;101513.60;1809209;78;20439;-44
2021/01/05 12:52:22;;;;;;;;;;;;;;;0.69;83.58;101516.05;1774620;78;20196;-44
2021/01/05 12:54:50;;;;;;;;;;;;;;;0.68;83.66;101506.14;1809494;78;20228;-43
2021/01/05 12:57:18;;;;;;;;;;;;;;;0.68;83.84;101503.97;1807751;78;20176;-42
2021/01/05 12:59:46;;;;;;;;;;;;;;;0.68;83.92;101507.84;1806408;78;20294;-42
2021/01/05 13:02:20;;;;;;;;;;;;;;;0.65;84.05;101507.34;1806600;78;20163;-43
2021/01/05 13:04:54;;;;;;;;;;;;;;;0.63;84.13;101506.80;1804417;78;20221;-41
2021/01/05 13:07:25;;;;;;;;;;;;;;;0.61;84.10;101499.00;1742860;78;20194;-43
2021/01/05 13:09:57;;;;;;;;;;;;;;;0.56;84.20;101504.82;1755299;78;20155;-43
2021/01/05 13:12:26;;;;;;;;;;;;;;;0.53;84.31;101510.73;1810756;78;20294;-43
2021/01/05 13:14:53;;;;;;;;;;;;;;;0.46;84.44;101507.46;1813171;78;20188;-42
2021/01/05 13:17:25;;;;;;;;;;;;;;;0.43;84.57;101506.08;1806612;78;20214;-44
2021/01/05 13:19:51;;;;;;;;;;;;;;;0.38;84.74;101508.49;1810094;78;20202;-42
2021/01/05 13:22:19;;;;;;;;;;;;;;;0.32;84.92;101506.98;1810956;78;20190;-40
2021/01/05 13:24:47;;;;;;;;;;;;;;;0.28;85.16;101504.20;1807670;78;20202;-40